sensor_id;sensor_type;location;lat;lon;timestamp;P1;durP1;ratioP1;P2;durP2;ratioP2
56567;SDS011;42456;49.956;20.004;2022-08-21T05:59:49;23.75;;;13.62;;
56567;SDS011;42456;49.956;20.004;2022-08-21T06:05:36;25.48;;;13.75;;
56567;SDS011;42456;49.956;20.004;2022-08-21T06:08:03;22.17;;;13.78;;
56567;SDS011;42456;49.956;20.004;2022-08-21T06:10:31;26.95;;;15.40;;
56567;SDS011;42456;49.956;20.004;2022-08-21T07:10:23;28.02;;;17.07;;
56567;SDS011;42456;49.956;20.004;2022-08-21T07:12:52;30.62;;;17.92;;
56567;SDS011;42456;49.956;20.004;2022-08-21T07:15:20;29.42;;;17.95;;
56567;SDS011;42456;49.956;20.004;2022-08-21T07:17:48;37.50;;;18.35;;
56567;SDS011;42456;49.956;20.004;2022-08-21T07:20:15;33.78;;;20.45;;
56567;SDS011;42456;49.956;20.004;2022-08-21T07:22:41;30.85;;;16.70;;
56567;SDS011;42456;49.956;20.004;2022-08-21T07:25:08;32.85;;;19.10;;
56567;SDS011;42456;49.956;20.004;2022-08-21T07:27:35;27.70;;;16.35;;
56567;SDS011;42456;49.956;20.004;2022-08-21T07:30:06;32.25;;;17.92;;
56567;SDS011;42456;49.956;20.004;2022-08-21T07:32:36;26.80;;;17.42;;
56567;SDS011;42456;49.956;20.004;2022-08-21T07:35:03;31.10;;;18.27;;
56567;SDS011;42456;49.956;20.004;2022-08-21T07:37:30;33.33;;;18.62;;
56567;SDS011;42456;49.956;20.004;2022-08-21T07:39:56;29.02;;;18.00;;
56567;SDS011;42456;49.956;20.004;2022-08-21T07:42:23;30.43;;;18.30;;
56567;SDS011;42456;49.956;20.004;2022-08-21T07:44:49;28.15;;;17.00;;
56567;SDS011;42456;49.956;20.004;2022-08-21T07:47:20;28.70;;;17.00;;
56567;SDS011;42456;49.956;20.004;2022-08-21T07:49:46;29.23;;;17.23;;
56567;SDS011;42456;49.956;20.004;2022-08-21T07:52:16;32.48;;;17.70;;
56567;SDS011;42456;49.956;20.004;2022-08-21T07:54:43;28.15;;;17.35;;
56567;SDS011;42456;49.956;20.004;2022-08-21T07:57:09;30.77;;;18.50;;
56567;SDS011;42456;49.956;20.004;2022-08-21T07:59:36;30.10;;;18.27;;
56567;SDS011;42456;49.956;20.004;2022-08-21T08:02:02;31.40;;;17.52;;
56567;SDS011;42456;49.956;20.004;2022-08-21T08:04:29;30.32;;;17.73;;
56567;SDS011;42456;49.956;20.004;2022-08-21T08:06:55;28.35;;;17.37;;
56567;SDS011;42456;49.956;20.004;2022-08-21T08:09:22;27.93;;;17.32;;
56567;SDS011;42456;49.956;20.004;2022-08-21T08:11:48;33.55;;;18.25;;
56567;SDS011;42456;49.956;20.004;2022-08-21T08:14:14;27.22;;;17.20;;
56567;SDS011;42456;49.956;20.004;2022-08-21T08:16:42;31.42;;;17.85;;
56567;SDS011;42456;49.956;20.004;2022-08-21T08:19:08;33.55;;;18.73;;
56567;SDS011;42456;49.956;20.004;2022-08-21T08:21:35;32.10;;;17.70;;
56567;SDS011;42456;49.956;20.004;2022-08-21T08:24:03;30.95;;;17.30;;
56567;SDS011;42456;49.956;20.004;2022-08-21T08:26:29;35.35;;;18.70;;
56567;SDS011;42456;49.956;20.004;2022-08-21T08:28:56;33.23;;;18.30;;
56567;SDS011;42456;49.956;20.004;2022-08-21T08:31:22;27.75;;;16.85;;
56567;SDS011;42456;49.956;20.004;2022-08-21T08:33:49;28.87;;;17.05;;
56567;SDS011;42456;49.956;20.004;2022-08-21T08:36:16;33.23;;;18.35;;
56567;SDS011;42456;49.956;20.004;2022-08-21T08:38:44;31.85;;;18.02;;
56567;SDS011;42456;49.956;20.004;2022-08-21T08:43:54;31.00;;;17.12;;
56567;SDS011;42456;49.956;20.004;2022-08-21T08:46:20;29.42;;;17.32;;
56567;SDS011;42456;49.956;20.004;2022-08-21T08:49:13;32.33;;;17.52;;
56567;SDS011;42456;49.956;20.004;2022-08-21T08:51:57;31.40;;;17.27;;
56567;SDS011;42456;49.956;20.004;2022-08-21T08:54:45;28.15;;;16.77;;
56567;SDS011;42456;49.956;20.004;2022-08-21T08:57:18;30.60;;;17.80;;
56567;SDS011;42456;49.956;20.004;2022-08-21T08:59:49;30.17;;;17.75;;
56567;SDS011;42456;49.956;20.004;2022-08-21T09:02:20;27.65;;;17.25;;
56567;SDS011;42456;49.956;20.004;2022-08-21T09:04:52;27.67;;;16.25;;
56567;SDS011;42456;49.956;20.004;2022-08-21T09:10:17;29.42;;;17.02;;
56567;SDS011;42456;49.956;20.004;2022-08-21T09:12:51;27.00;;;15.83;;
56567;SDS011;42456;49.956;20.004;2022-08-21T09:18:11;26.62;;;16.87;;
56567;SDS011;42456;49.956;20.004;2022-08-21T09:29:36;35.68;;;17.12;;
56567;SDS011;42456;49.956;20.004;2022-08-21T09:32:16;30.27;;;16.87;;
56567;SDS011;42456;49.956;20.004;2022-08-21T09:35:03;26.48;;;16.50;;
56567;SDS011;42456;49.956;20.004;2022-08-21T09:45:41;28.40;;;16.17;;
56567;SDS011;42456;49.956;20.004;2022-08-21T09:50:46;27.58;;;15.40;;
56567;SDS011;42456;49.956;20.004;2022-08-21T09:53:15;24.87;;;16.82;;
56567;SDS011;42456;49.956;20.004;2022-08-21T09:55:53;25.12;;;16.15;;
56567;SDS011;42456;49.956;20.004;2022-08-21T09:58:43;27.55;;;16.12;;
56567;SDS011;42456;49.956;20.004;2022-08-21T10:01:14;26.95;;;16.80;;
56567;SDS011;42456;49.956;20.004;2022-08-21T10:03:46;24.20;;;15.75;;
56567;SDS011;42456;49.956;20.004;2022-08-21T10:06:23;27.80;;;17.48;;
56567;SDS011;42456;49.956;20.004;2022-08-21T10:09:03;25.02;;;15.53;;
56567;SDS011;42456;49.956;20.004;2022-08-21T10:11:33;23.55;;;14.80;;
56567;SDS011;42456;49.956;20.004;2022-08-21T10:25:19;23.47;;;14.43;;
56567;SDS011;42456;49.956;20.004;2022-08-21T10:28:17;23.95;;;15.43;;
56567;SDS011;42456;49.956;20.004;2022-08-21T10:33:51;25.40;;;14.60;;
56567;SDS011;42456;49.956;20.004;2022-08-21T10:36:35;25.72;;;14.70;;
56567;SDS011;42456;49.956;20.004;2022-08-21T10:47:33;23.52;;;15.50;;
56567;SDS011;42456;49.956;20.004;2022-08-21T10:55:56;27.35;;;15.95;;
56567;SDS011;42456;49.956;20.004;2022-08-21T10:58:36;17.05;;;9.63;;
56567;SDS011;42456;49.956;20.004;2022-08-21T11:01:07;15.45;;;7.42;;
56567;SDS011;42456;49.956;20.004;2022-08-21T11:03:39;13.93;;;6.30;;
56567;SDS011;42456;49.956;20.004;2022-08-21T11:06:17;9.53;;;5.62;;
56567;SDS011;42456;49.956;20.004;2022-08-21T11:08:55;9.35;;;5.33;;
56567;SDS011;42456;49.956;20.004;2022-08-21T11:11:26;11.18;;;5.12;;
56567;SDS011;42456;49.956;20.004;2022-08-21T11:14:13;10.90;;;4.67;;
56567;SDS011;42456;49.956;20.004;2022-08-21T11:17:13;7.67;;;4.08;;
56567;SDS011;42456;49.956;20.004;2022-08-21T11:19:45;6.50;;;4.12;;
56567;SDS011;42456;49.956;20.004;2022-08-21T11:22:15;8.25;;;4.12;;
56567;SDS011;42456;49.956;20.004;2022-08-21T11:24:56;8.48;;;3.90;;
56567;SDS011;42456;49.956;20.004;2022-08-21T11:30:18;9.25;;;3.47;;
56567;SDS011;42456;49.956;20.004;2022-08-21T11:38:22;7.50;;;3.72;;
56567;SDS011;42456;49.956;20.004;2022-08-21T11:51:41;4.47;;;2.70;;
56567;SDS011;42456;49.956;20.004;2022-08-21T11:59:37;5.62;;;2.40;;
56567;SDS011;42456;49.956;20.004;2022-08-21T12:02:12;2.45;;;2.10;;
56567;SDS011;42456;49.956;20.004;2022-08-21T12:04:46;4.33;;;2.60;;
56567;SDS011;42456;49.956;20.004;2022-08-21T12:07:32;2.55;;;2.05;;
56567;SDS011;42456;49.956;20.004;2022-08-21T12:10:04;2.58;;;2.20;;
56567;SDS011;42456;49.956;20.004;2022-08-21T12:12:35;3.85;;;2.10;;
56567;SDS011;42456;49.956;20.004;2022-08-21T12:15:14;3.08;;;2.35;;
56567;SDS011;42456;49.956;20.004;2022-08-21T12:17:56;3.02;;;2.15;;
56567;SDS011;42456;49.956;20.004;2022-08-21T12:25:42;3.60;;;2.70;;
56567;SDS011;42456;49.956;20.004;2022-08-21T12:28:13;4.85;;;2.70;;
56567;SDS011;42456;49.956;20.004;2022-08-21T12:30:44;3.42;;;2.42;;
56567;SDS011;42456;49.956;20.004;2022-08-21T12:38:47;3.75;;;2.37;;
56567;SDS011;42456;49.956;20.004;2022-08-21T12:41:32;3.37;;;2.20;;
56567;SDS011;42456;49.956;20.004;2022-08-21T12:44:15;4.47;;;2.60;;
56567;SDS011;42456;49.956;20.004;2022-08-21T12:46:53;3.85;;;2.47;;
56567;SDS011;42456;49.956;20.004;2022-08-21T12:54:55;4.53;;;2.70;;
56567;SDS011;42456;49.956;20.004;2022-08-21T12:57:23;5.97;;;2.90;;
56567;SDS011;42456;49.956;20.004;2022-08-21T12:59:57;2.75;;;2.20;;
56567;SDS011;42456;49.956;20.004;2022-08-21T13:02:31;3.30;;;2.35;;
56567;SDS011;42456;49.956;20.004;2022-08-21T13:05:05;5.40;;;2.37;;
56567;SDS011;42456;49.956;20.004;2022-08-21T13:07:36;5.55;;;2.67;;
56567;SDS011;42456;49.956;20.004;2022-08-21T13:10:07;6.25;;;3.37;;
56567;SDS011;42456;49.956;20.004;2022-08-21T13:12:47;2.87;;;2.42;;
56567;SDS011;42456;49.956;20.004;2022-08-21T13:15:15;2.60;;;2.33;;
56567;SDS011;42456;49.956;20.004;2022-08-21T13:17:47;5.58;;;3.00;;
56567;SDS011;42456;49.956;20.004;2022-08-21T13:20:24;3.67;;;2.42;;
56567;SDS011;42456;49.956;20.004;2022-08-21T13:22:54;4.28;;;2.52;;
56567;SDS011;42456;49.956;20.004;2022-08-21T13:25:24;2.60;;;2.30;;
56567;SDS011;42456;49.956;20.004;2022-08-21T13:30:32;5.25;;;2.85;;
56567;SDS011;42456;49.956;20.004;2022-08-21T13:33:00;3.35;;;2.40;;
56567;SDS011;42456;49.956;20.004;2022-08-21T13:35:45;3.92;;;2.52;;
56567;SDS011;42456;49.956;20.004;2022-08-21T13:38:24;3.55;;;2.80;;
56567;SDS011;42456;49.956;20.004;2022-08-21T13:40:58;3.30;;;2.58;;
56567;SDS011;42456;49.956;20.004;2022-08-21T13:43:44;3.35;;;2.60;;
56567;SDS011;42456;49.956;20.004;2022-08-21T13:46:15;3.10;;;2.62;;
56567;SDS011;42456;49.956;20.004;2022-08-21T13:48:44;2.95;;;2.72;;
56567;SDS011;42456;49.956;20.004;2022-08-21T13:51:11;3.65;;;2.70;;
56567;SDS011;42456;49.956;20.004;2022-08-21T13:56:23;3.67;;;2.67;;
56567;SDS011;42456;49.956;20.004;2022-08-21T13:58:57;4.10;;;2.47;;
56567;SDS011;42456;49.956;20.004;2022-08-21T14:07:01;3.60;;;2.72;;
56567;SDS011;42456;49.956;20.004;2022-08-21T14:09:32;2.90;;;2.60;;
56567;SDS011;42456;49.956;20.004;2022-08-21T14:12:16;3.80;;;2.70;;
56567;SDS011;42456;49.956;20.004;2022-08-21T14:14:43;3.12;;;2.83;;
56567;SDS011;42456;49.956;20.004;2022-08-21T14:17:12;3.58;;;2.85;;
56567;SDS011;42456;49.956;20.004;2022-08-21T14:19:44;2.95;;;2.75;;
56567;SDS011;42456;49.956;20.004;2022-08-21T14:25:48;4.87;;;2.92;;
56567;SDS011;42456;49.956;20.004;2022-08-21T14:27:38;4.33;;;3.08;;
56567;SDS011;42456;49.956;20.004;2022-08-21T14:30:17;4.00;;;2.87;;
56567;SDS011;42456;49.956;20.004;2022-08-21T14:33:01;2.77;;;2.58;;
56567;SDS011;42456;49.956;20.004;2022-08-21T14:35:29;5.08;;;2.70;;
56567;SDS011;42456;49.956;20.004;2022-08-21T14:37:56;3.12;;;2.83;;
56567;SDS011;42456;49.956;20.004;2022-08-21T14:40:23;3.80;;;3.15;;
56567;SDS011;42456;49.956;20.004;2022-08-21T14:42:50;4.83;;;2.50;;
56567;SDS011;42456;49.956;20.004;2022-08-21T14:45:29;2.92;;;2.62;;
56567;SDS011;42456;49.956;20.004;2022-08-21T14:47:54;2.70;;;2.50;;
56567;SDS011;42456;49.956;20.004;2022-08-21T14:50:22;4.72;;;2.62;;
56567;SDS011;42456;49.956;20.004;2022-08-21T14:52:49;2.50;;;2.30;;
56567;SDS011;42456;49.956;20.004;2022-08-21T14:55:17;2.52;;;2.30;;
56567;SDS011;42456;49.956;20.004;2022-08-21T14:57:45;3.25;;;2.70;;
56567;SDS011;42456;49.956;20.004;2022-08-21T15:00:16;4.87;;;2.72;;
56567;SDS011;42456;49.956;20.004;2022-08-21T15:02:47;2.60;;;2.30;;
56567;SDS011;42456;49.956;20.004;2022-08-21T15:05:15;3.20;;;2.50;;
56567;SDS011;42456;49.956;20.004;2022-08-21T15:07:43;2.75;;;2.55;;
56567;SDS011;42456;49.956;20.004;2022-08-21T15:10:09;3.10;;;2.80;;
56567;SDS011;42456;49.956;20.004;2022-08-21T15:12:37;4.45;;;3.00;;
56567;SDS011;42456;49.956;20.004;2022-08-21T15:15:05;3.33;;;3.00;;
56567;SDS011;42456;49.956;20.004;2022-08-21T15:17:34;3.17;;;2.87;;
56567;SDS011;42456;49.956;20.004;2022-08-21T15:20:01;3.10;;;2.80;;
56567;SDS011;42456;49.956;20.004;2022-08-21T15:22:30;4.50;;;2.75;;
56567;SDS011;42456;49.956;20.004;2022-08-21T15:24:56;3.00;;;2.80;;
56567;SDS011;42456;49.956;20.004;2022-08-21T15:27:23;3.05;;;2.83;;
56567;SDS011;42456;49.956;20.004;2022-08-21T15:29:49;3.37;;;2.65;;
56567;SDS011;42456;49.956;20.004;2022-08-21T15:32:22;6.37;;;3.12;;
56567;SDS011;42456;49.956;20.004;2022-08-21T15:34:50;6.55;;;3.25;;
56567;SDS011;42456;49.956;20.004;2022-08-21T15:37:22;3.22;;;2.92;;
56567;SDS011;42456;49.956;20.004;2022-08-21T15:39:51;3.33;;;2.87;;
56567;SDS011;42456;49.956;20.004;2022-08-21T15:42:20;4.33;;;3.22;;
56567;SDS011;42456;49.956;20.004;2022-08-21T15:44:49;6.90;;;3.47;;
56567;SDS011;42456;49.956;20.004;2022-08-21T15:47:21;5.35;;;3.58;;
56567;SDS011;42456;49.956;20.004;2022-08-21T15:49:59;5.15;;;4.00;;
56567;SDS011;42456;49.956;20.004;2022-08-21T15:52:26;5.30;;;4.00;;
56567;SDS011;42456;49.956;20.004;2022-08-21T15:55:01;5.83;;;4.03;;
56567;SDS011;42456;49.956;20.004;2022-08-21T15:57:38;6.30;;;3.92;;
56567;SDS011;42456;49.956;20.004;2022-08-21T16:00:19;7.78;;;4.45;;
56567;SDS011;42456;49.956;20.004;2022-08-21T16:02:55;7.58;;;4.17;;
56567;SDS011;42456;49.956;20.004;2022-08-21T16:05:25;8.08;;;4.30;;
56567;SDS011;42456;49.956;20.004;2022-08-21T16:07:57;8.55;;;4.20;;
56567;SDS011;42456;49.956;20.004;2022-08-21T16:10:29;6.40;;;4.30;;
56567;SDS011;42456;49.956;20.004;2022-08-21T16:13:01;10.32;;;4.10;;
56567;SDS011;42456;49.956;20.004;2022-08-21T16:15:32;12.03;;;4.45;;
56567;SDS011;42456;49.956;20.004;2022-08-21T16:18:03;7.35;;;4.35;;
56567;SDS011;42456;49.956;20.004;2022-08-21T16:20:44;11.25;;;4.87;;
56567;SDS011;42456;49.956;20.004;2022-08-21T16:25:51;7.65;;;3.98;;
56567;SDS011;42456;49.956;20.004;2022-08-21T16:28:34;7.22;;;3.70;;
56567;SDS011;42456;49.956;20.004;2022-08-21T16:33:42;4.83;;;2.67;;
56567;SDS011;42456;49.956;20.004;2022-08-21T16:41:52;2.22;;;2.02;;
56567;SDS011;42456;49.956;20.004;2022-08-21T16:44:34;3.15;;;2.58;;
56567;SDS011;42456;49.956;20.004;2022-08-21T16:47:12;4.17;;;2.80;;
56567;SDS011;42456;49.956;20.004;2022-08-21T16:52:23;3.50;;;2.83;;
56567;SDS011;42456;49.956;20.004;2022-08-21T16:55:30;2.83;;;2.50;;
56567;SDS011;42456;49.956;20.004;2022-08-21T17:30:31;2.60;;;2.37;;
56567;SDS011;42456;49.956;20.004;2022-08-21T17:35:55;2.80;;;2.40;;
56567;SDS011;42456;49.956;20.004;2022-08-21T17:38:44;4.73;;;2.60;;
56567;SDS011;42456;49.956;20.004;2022-08-21T18:24:33;4.83;;;2.83;;
56567;SDS011;42456;49.956;20.004;2022-08-21T18:43:53;3.55;;;3.20;;
56567;SDS011;42456;49.956;20.004;2022-08-21T19:03:44;3.83;;;2.60;;
56567;SDS011;42456;49.956;20.004;2022-08-21T19:32:33;5.00;;;3.40;;
56567;SDS011;42456;49.956;20.004;2022-08-21T19:43:40;4.20;;;3.02;;
56567;SDS011;42456;49.956;20.004;2022-08-21T19:46:10;4.17;;;2.80;;
56567;SDS011;42456;49.956;20.004;2022-08-21T19:48:40;4.47;;;3.33;;
56567;SDS011;42456;49.956;20.004;2022-08-21T19:51:06;3.40;;;2.92;;
56567;SDS011;42456;49.956;20.004;2022-08-21T19:53:32;4.40;;;2.67;;
56567;SDS011;42456;49.956;20.004;2022-08-21T19:56:03;3.72;;;2.92;;
56567;SDS011;42456;49.956;20.004;2022-08-21T19:58:35;4.42;;;2.83;;
56567;SDS011;42456;49.956;20.004;2022-08-21T20:01:04;4.60;;;3.15;;
56567;SDS011;42456;49.956;20.004;2022-08-21T20:03:32;5.37;;;3.40;;
56567;SDS011;42456;49.956;20.004;2022-08-21T20:05:58;4.97;;;3.00;;
56567;SDS011;42456;49.956;20.004;2022-08-21T20:08:25;6.05;;;3.22;;
56567;SDS011;42456;49.956;20.004;2022-08-21T20:10:51;3.87;;;3.02;;
56567;SDS011;42456;49.956;20.004;2022-08-21T20:13:21;4.58;;;3.10;;
56567;SDS011;42456;49.956;20.004;2022-08-21T20:15:48;3.77;;;2.70;;
56567;SDS011;42456;49.956;20.004;2022-08-21T20:18:16;4.08;;;3.00;;
56567;SDS011;42456;49.956;20.004;2022-08-21T20:20:44;3.45;;;2.83;;
56567;SDS011;42456;49.956;20.004;2022-08-21T20:23:11;3.58;;;2.52;;
56567;SDS011;42456;49.956;20.004;2022-08-21T20:25:40;3.90;;;2.80;;
56567;SDS011;42456;49.956;20.004;2022-08-21T20:28:07;4.15;;;2.67;;
56567;SDS011;42456;49.956;20.004;2022-08-21T20:30:34;2.98;;;2.65;;
56567;SDS011;42456;49.956;20.004;2022-08-21T20:33:00;5.75;;;2.65;;
56567;SDS011;42456;49.956;20.004;2022-08-21T20:35:27;4.67;;;2.55;;
56567;SDS011;42456;49.956;20.004;2022-08-21T20:37:53;2.75;;;2.30;;
56567;SDS011;42456;49.956;20.004;2022-08-21T20:40:19;2.42;;;2.22;;
56567;SDS011;42456;49.956;20.004;2022-08-21T20:42:47;5.22;;;2.40;;
56567;SDS011;42456;49.956;20.004;2022-08-21T20:45:18;3.67;;;2.52;;
56567;SDS011;42456;49.956;20.004;2022-08-21T20:47:48;2.87;;;2.40;;
56567;SDS011;42456;49.956;20.004;2022-08-21T20:50:18;2.92;;;2.50;;
56567;SDS011;42456;49.956;20.004;2022-08-21T20:52:48;3.98;;;2.27;;
56567;SDS011;42456;49.956;20.004;2022-08-21T20:55:18;5.72;;;2.40;;
56567;SDS011;42456;49.956;20.004;2022-08-21T21:00:23;3.12;;;2.40;;
56567;SDS011;42456;49.956;20.004;2022-08-21T21:02:58;2.95;;;2.40;;
56567;SDS011;42456;49.956;20.004;2022-08-21T21:08:16;4.20;;;2.22;;
56567;SDS011;42456;49.956;20.004;2022-08-21T21:11:04;2.10;;;1.90;;
56567;SDS011;42456;49.956;20.004;2022-08-21T21:16:59;3.20;;;2.20;;
56567;SDS011;42456;49.956;20.004;2022-08-21T21:24:35;2.22;;;2.02;;
56567;SDS011;42456;49.956;20.004;2022-08-21T21:27:34;4.22;;;2.08;;
56567;SDS011;42456;49.956;20.004;2022-08-21T21:32:53;2.25;;;1.80;;
56567;SDS011;42456;49.956;20.004;2022-08-21T21:35:20;2.52;;;1.75;;
56567;SDS011;42456;49.956;20.004;2022-08-21T21:37:51;1.90;;;1.80;;
56567;SDS011;42456;49.956;20.004;2022-08-21T21:40:37;2.08;;;1.75;;
56567;SDS011;42456;49.956;20.004;2022-08-21T21:49:22;2.52;;;1.77;;
56567;SDS011;42456;49.956;20.004;2022-08-21T22:00:31;2.05;;;1.27;;
56567;SDS011;42456;49.956;20.004;2022-08-21T22:05:38;3.02;;;1.52;;
56567;SDS011;42456;49.956;20.004;2022-08-21T22:14:20;1.45;;;1.35;;
56567;SDS011;42456;49.956;20.004;2022-08-21T22:16:50;2.05;;;1.65;;
56567;SDS011;42456;49.956;20.004;2022-08-21T22:19:21;1.60;;;1.50;;
56567;SDS011;42456;49.956;20.004;2022-08-21T22:21:57;1.57;;;1.47;;
56567;SDS011;42456;49.956;20.004;2022-08-21T22:24:37;2.55;;;1.50;;
56567;SDS011;42456;49.956;20.004;2022-08-21T22:27:09;1.67;;;1.57;;
56567;SDS011;42456;49.956;20.004;2022-08-21T22:29:56;2.47;;;1.50;;
56567;SDS011;42456;49.956;20.004;2022-08-21T22:32:27;2.30;;;1.70;;
56567;SDS011;42456;49.956;20.004;2022-08-21T22:37:57;2.67;;;1.83;;
56567;SDS011;42456;49.956;20.004;2022-08-21T22:40:33;2.47;;;1.55;;
56567;SDS011;42456;49.956;20.004;2022-08-21T22:43:02;2.00;;;1.80;;
56567;SDS011;42456;49.956;20.004;2022-08-21T22:45:47;1.95;;;1.70;;
56567;SDS011;42456;49.956;20.004;2022-08-21T22:48:04;4.28;;;1.70;;
56567;SDS011;42456;49.956;20.004;2022-08-21T22:50:33;2.33;;;1.77;;
56567;SDS011;42456;49.956;20.004;2022-08-21T22:53:03;2.98;;;1.75;;
56567;SDS011;42456;49.956;20.004;2022-08-21T22:55:39;1.98;;;1.70;;
56567;SDS011;42456;49.956;20.004;2022-08-21T23:03:53;2.58;;;1.77;;
56567;SDS011;42456;49.956;20.004;2022-08-21T23:06:33;2.27;;;2.08;;
56567;SDS011;42456;49.956;20.004;2022-08-21T23:09:02;2.58;;;1.80;;
56567;SDS011;42456;49.956;20.004;2022-08-21T23:11:36;2.87;;;1.72;;
56567;SDS011;42456;49.956;20.004;2022-08-21T23:14:04;3.52;;;2.10;;
56567;SDS011;42456;49.956;20.004;2022-08-21T23:17:15;2.50;;;2.00;;
56567;SDS011;42456;49.956;20.004;2022-08-21T23:36:58;5.97;;;2.40;;
56567;SDS011;42456;49.956;20.004;2022-08-21T23:41:54;2.98;;;2.12;;
56567;SDS011;42456;49.956;20.004;2022-08-21T23:50:13;5.60;;;2.08;;
